createdAt,value
2019-02-23T00:00:30.017Z,6.28
2019-02-23T00:01:30.063Z,6.28
2019-02-23T00:02:30.004Z,6.28
2019-02-23T00:03:29.983Z,6.27
2019-02-23T00:04:29.982Z,6.34
2019-02-23T00:05:29.971Z,6.27
2019-02-23T00:06:30.312Z,6.18
2019-02-23T00:07:29.947Z,6.30
2019-02-23T00:08:29.939Z,6.17
2019-02-23T00:09:29.918Z,6.14
2019-02-23T00:10:29.909Z,6.12
2019-02-23T00:11:29.919Z,6.14
2019-02-23T00:12:29.886Z,6.04
2019-02-23T00:13:29.874Z,6.04
2019-02-23T00:14:29.865Z,5.99
2019-02-23T00:15:29.857Z,6.04
2019-02-23T00:16:29.863Z,5.90
2019-02-23T00:17:29.833Z,5.90
2019-02-23T00:18:29.827Z,5.85
2019-02-23T00:19:29.817Z,5.83
2019-02-23T00:20:29.803Z,5.86
2019-02-23T00:21:29.799Z,5.85
2019-02-23T00:22:29.778Z,5.85
2019-02-23T00:23:29.768Z,5.94
2019-02-23T00:24:29.757Z,5.93
2019-02-23T00:25:29.751Z,5.93
2019-02-23T00:26:29.784Z,5.85
2019-02-23T00:27:29.724Z,5.83
2019-02-23T00:28:29.715Z,5.83
2019-02-23T00:29:29.712Z,5.93
2019-02-23T00:30:29.702Z,5.94
2019-02-23T00:31:29.703Z,5.91
2019-02-23T00:32:29.671Z,5.96
2019-02-23T00:33:29.670Z,5.94
2019-02-23T00:34:29.671Z,5.90
2019-02-23T00:35:29.638Z,5.90
2019-02-23T00:36:29.640Z,5.91
2019-02-23T00:37:29.639Z,5.89
2019-02-23T00:38:29.599Z,5.97
2019-02-23T00:39:29.607Z,5.90
2019-02-23T00:40:29.581Z,5.93
2019-02-23T00:41:29.602Z,5.93
2019-02-23T00:42:29.606Z,5.94
2019-02-23T00:43:29.553Z,5.99
2019-02-23T00:44:29.539Z,5.91
2019-02-23T00:45:29.532Z,5.96
2019-02-23T00:46:29.525Z,5.79
2019-02-23T00:47:29.526Z,5.85
2019-02-23T00:48:29.494Z,5.83
2019-02-23T00:49:36.205Z,5.85
2019-02-23T00:50:30.491Z,5.86
2019-02-23T00:51:29.460Z,5.85
2019-02-23T00:52:29.464Z,5.81
2019-02-23T00:53:29.455Z,5.90
2019-02-23T00:54:29.443Z,5.89
2019-02-23T00:55:29.416Z,5.79
2019-02-23T00:56:29.412Z,5.79
2019-02-23T00:57:29.416Z,5.82
2019-02-23T00:58:29.408Z,5.94
2019-02-23T00:59:29.378Z,5.90
2019-02-23T01:00:29.359Z,5.86
2019-02-23T01:01:29.354Z,5.94
2019-02-23T01:02:29.345Z,5.99
2019-02-23T01:03:29.346Z,5.90
2019-02-23T01:04:29.330Z,5.91
2019-02-23T01:05:29.319Z,5.91
2019-02-23T01:06:29.297Z,5.90
2019-02-23T01:07:29.285Z,5.85
2019-02-23T01:08:29.291Z,5.91
2019-02-23T01:09:29.271Z,5.94
2019-02-23T01:10:29.252Z,5.89
2019-02-23T01:11:29.253Z,5.85
2019-02-23T01:12:29.234Z,5.82
2019-02-23T01:13:29.245Z,5.79
2019-02-23T01:14:29.216Z,5.71
2019-02-23T01:15:29.202Z,5.81
2019-02-23T01:16:29.188Z,5.74
2019-02-23T01:17:29.184Z,5.64
2019-02-23T01:18:29.180Z,5.67
2019-02-23T01:19:29.151Z,5.60
2019-02-23T01:20:29.150Z,5.68
2019-02-23T01:21:29.140Z,5.63
2019-02-23T01:22:29.125Z,5.65
2019-02-23T01:23:29.134Z,5.65
2019-02-23T01:24:29.097Z,5.63
2019-02-23T01:25:29.089Z,5.61
2019-02-23T01:26:29.084Z,5.58
2019-02-23T01:27:29.073Z,5.63
2019-02-23T01:28:29.057Z,5.68
2019-02-23T01:29:29.065Z,5.61
2019-02-23T01:30:29.032Z,5.65
2019-02-23T01:31:29.029Z,5.72
2019-02-23T01:32:29.018Z,5.76
2019-02-23T01:33:29.024Z,5.74
2019-02-23T01:34:29.027Z,5.72
2019-02-23T01:35:28.996Z,5.72
2019-02-23T01:36:28.968Z,5.67
2019-02-23T01:37:28.956Z,5.68
2019-02-23T01:38:28.958Z,5.68
2019-02-23T01:39:28.939Z,5.63
2019-02-23T01:40:28.930Z,5.63
2019-02-23T01:41:28.927Z,5.71
2019-02-23T01:42:28.899Z,5.67
2019-02-23T01:43:28.889Z,5.63
2019-02-23T01:44:28.897Z,5.61
2019-02-23T01:45:28.870Z,5.58
2019-02-23T01:46:28.865Z,5.63
2019-02-23T01:47:28.846Z,5.63
2019-02-23T01:48:28.836Z,5.65
2019-02-23T01:49:28.853Z,5.64
2019-02-23T01:50:28.815Z,5.64
2019-02-23T01:51:28.817Z,5.60
2019-02-23T01:52:28.791Z,5.63
2019-02-23T01:53:28.792Z,5.65
2019-02-23T01:54:28.772Z,5.56
2019-02-23T01:55:28.795Z,5.56
2019-02-23T01:56:28.756Z,5.60
2019-02-23T01:57:28.738Z,5.65
2019-02-23T01:58:28.730Z,5.61
2019-02-23T01:59:28.721Z,5.60
2019-02-23T02:00:28.706Z,5.64
2019-02-23T02:01:28.713Z,5.63
2019-02-23T02:02:28.692Z,5.63
2019-02-23T02:03:28.689Z,5.65
2019-02-23T02:04:28.671Z,5.63
2019-02-23T02:05:28.657Z,5.65
2019-02-23T02:06:28.664Z,5.58
2019-02-23T02:07:28.641Z,5.63
2019-02-23T02:08:28.634Z,5.65
2019-02-23T02:09:28.602Z,5.68
2019-02-23T02:10:28.601Z,5.67
2019-02-23T02:11:28.662Z,5.72
2019-02-23T02:12:28.613Z,5.65
2019-02-23T02:13:28.564Z,5.63
2019-02-23T02:14:28.562Z,5.58
2019-02-23T02:15:28.552Z,5.58
2019-02-23T02:16:28.535Z,5.53
2019-02-23T02:17:28.540Z,5.49
2019-02-23T02:18:28.509Z,5.53
2019-02-23T02:19:28.495Z,5.48
2019-02-23T02:20:28.490Z,5.49
2019-02-23T02:21:28.498Z,5.51
2019-02-23T02:22:28.482Z,5.51
2019-02-23T02:23:28.467Z,5.42
2019-02-23T02:24:28.443Z,5.42
2019-02-23T02:25:28.429Z,5.45
2019-02-23T02:26:28.443Z,5.43
2019-02-23T02:27:28.501Z,5.40
2019-02-23T02:28:28.413Z,5.35
2019-02-23T02:29:28.438Z,5.45
2019-02-23T02:30:28.380Z,5.38
2019-02-23T02:31:28.368Z,5.40
2019-02-23T02:32:28.492Z,5.35
2019-02-23T02:33:28.344Z,5.38
2019-02-23T02:34:28.339Z,5.35
2019-02-23T02:35:28.341Z,5.31
2019-02-23T02:36:28.335Z,5.38
2019-02-23T02:37:28.315Z,5.31
2019-02-23T02:38:28.338Z,5.38
2019-02-23T02:39:28.287Z,5.31
2019-02-23T02:40:28.269Z,5.35
2019-02-23T02:41:28.260Z,5.38
2019-02-23T02:42:28.283Z,5.30
2019-02-23T02:43:28.247Z,5.30
2019-02-23T02:44:28.222Z,5.30
2019-02-23T02:45:28.212Z,5.25
2019-02-23T02:46:28.218Z,5.21
2019-02-23T02:47:28.222Z,5.21
2019-02-23T02:48:28.212Z,5.17
2019-02-23T02:49:28.168Z,5.20
2019-02-23T02:50:28.156Z,5.15
2019-02-23T02:51:28.156Z,5.15
2019-02-23T02:52:28.164Z,5.21
2019-02-23T02:53:28.132Z,5.18
2019-02-23T02:54:28.119Z,5.07
2019-02-23T02:55:28.104Z,5.10
2019-02-23T02:56:28.092Z,5.13
2019-02-23T02:57:28.144Z,5.12
2019-02-23T02:58:28.093Z,5.02
2019-02-23T02:59:28.060Z,5.13
2019-02-23T03:00:28.047Z,4.99
2019-02-23T03:01:28.053Z,4.96
2019-02-23T03:02:28.026Z,4.92
2019-02-23T03:03:28.034Z,4.96
2019-02-23T03:04:28.062Z,4.88
2019-02-23T03:05:28.031Z,4.82
2019-02-23T03:06:27.989Z,4.86
2019-02-23T03:07:27.976Z,4.78
2019-02-23T03:08:27.992Z,4.78
2019-02-23T03:09:27.992Z,4.72
2019-02-23T03:10:27.950Z,4.72
2019-02-23T03:11:27.948Z,4.80
2019-02-23T03:12:27.913Z,4.63
2019-02-23T03:13:27.928Z,4.73
2019-02-23T03:14:27.933Z,4.66
2019-02-23T03:15:27.892Z,4.59
2019-02-23T03:16:27.885Z,4.60
2019-02-23T03:17:27.862Z,4.62
2019-02-23T03:18:27.866Z,4.63
2019-02-23T03:19:27.852Z,4.63
2019-02-23T03:20:36.361Z,4.55
2019-02-23T03:21:28.822Z,4.60
2019-02-23T03:22:27.816Z,4.52
2019-02-23T03:23:27.830Z,4.58
2019-02-23T03:24:27.796Z,4.51
2019-02-23T03:25:27.782Z,4.42
2019-02-23T03:26:27.764Z,4.52
2019-02-23T03:27:27.756Z,4.40
2019-02-23T03:28:27.761Z,4.47
2019-02-23T03:29:27.730Z,4.44
2019-02-23T03:30:27.723Z,4.40
2019-02-23T03:31:27.706Z,4.41
2019-02-23T03:32:27.697Z,4.34
2019-02-23T03:33:27.718Z,4.29
2019-02-23T03:34:27.671Z,4.29
2019-02-23T03:35:27.666Z,4.26
2019-02-23T03:36:27.663Z,4.26
2019-02-23T03:37:27.640Z,4.36
2019-02-23T03:38:27.629Z,4.33
2019-02-23T03:39:27.634Z,4.24
2019-02-23T03:40:27.609Z,4.32
2019-02-23T03:41:27.596Z,4.26
2019-02-23T03:42:27.596Z,4.23
2019-02-23T03:43:27.575Z,4.18
2019-02-23T03:44:27.580Z,4.14
2019-02-23T03:45:27.553Z,4.20
2019-02-23T03:46:27.543Z,4.08
2019-02-23T03:47:27.536Z,3.98
2019-02-23T03:48:27.529Z,4.11
2019-02-23T03:49:27.523Z,4.04
2019-02-23T03:50:27.502Z,3.96
2019-02-23T03:51:27.490Z,4.05
2019-02-23T03:52:27.476Z,4.00
2019-02-23T03:53:27.470Z,3.98
2019-02-23T03:54:27.482Z,3.93
2019-02-23T03:55:27.467Z,4.00
2019-02-23T03:56:27.437Z,3.83
2019-02-23T03:57:27.423Z,3.96
2019-02-23T03:58:27.412Z,3.79
2019-02-23T03:59:27.423Z,3.84
2019-02-23T04:00:27.412Z,3.84
2019-02-23T04:01:27.379Z,3.90
2019-02-23T04:02:27.368Z,3.84
2019-02-23T04:03:27.355Z,3.90
2019-02-23T04:04:27.346Z,3.75
2019-02-23T04:05:27.356Z,3.83
2019-02-23T04:06:27.336Z,3.76
2019-02-23T04:07:27.314Z,3.70
2019-02-23T04:08:27.299Z,3.78
2019-02-23T04:09:27.295Z,3.72
2019-02-23T04:10:27.298Z,3.70
2019-02-23T04:11:27.272Z,3.68
2019-02-23T04:12:27.256Z,3.78
2019-02-23T04:13:27.248Z,3.73
2019-02-23T04:14:27.237Z,3.73
2019-02-23T04:15:27.239Z,3.66
2019-02-23T04:16:27.212Z,3.65
2019-02-23T04:17:27.207Z,3.66
2019-02-23T04:18:27.194Z,3.55
2019-02-23T04:19:27.186Z,3.50
2019-02-23T04:20:27.183Z,3.54
2019-02-23T04:21:27.175Z,3.54
2019-02-23T04:22:27.147Z,3.52
2019-02-23T04:23:27.149Z,3.43
2019-02-23T04:24:27.136Z,3.45
2019-02-23T04:25:27.147Z,3.45
2019-02-23T04:26:27.103Z,3.47
2019-02-23T04:27:27.096Z,3.42
2019-02-23T04:28:27.080Z,3.36
2019-02-23T04:29:27.071Z,3.33
2019-02-23T04:30:27.093Z,3.40
2019-02-23T04:31:27.054Z,3.48
2019-02-23T04:32:27.039Z,3.42
2019-02-23T04:33:27.036Z,3.39
2019-02-23T04:34:27.015Z,3.32
2019-02-23T04:35:27.008Z,3.36
2019-02-23T04:36:27.031Z,3.35
2019-02-23T04:37:26.983Z,3.45
2019-02-23T04:38:26.988Z,3.33
2019-02-23T04:39:26.963Z,3.42
2019-02-23T04:40:26.951Z,3.42
2019-02-23T04:41:26.960Z,3.33
2019-02-23T04:42:26.945Z,3.28
2019-02-23T04:43:26.922Z,3.40
2019-02-23T04:44:26.908Z,3.40
2019-02-23T04:45:26.900Z,3.43
2019-02-23T04:46:26.892Z,3.39
2019-02-23T04:47:26.892Z,3.42
2019-02-23T04:48:26.864Z,3.39
2019-02-23T04:49:26.865Z,3.40
2019-02-23T04:50:26.854Z,3.40
2019-02-23T04:51:26.843Z,3.39
2019-02-23T04:52:26.837Z,3.35
2019-02-23T04:53:26.840Z,3.36
2019-02-23T04:54:26.796Z,3.36
2019-02-23T04:55:26.787Z,3.24
2019-02-23T04:56:26.786Z,3.29
2019-02-23T04:57:26.810Z,3.23
2019-02-23T04:58:26.755Z,3.24
2019-02-23T04:59:26.743Z,3.29
2019-02-23T05:00:26.733Z,3.24
2019-02-23T05:01:26.724Z,3.23
2019-02-23T05:02:26.748Z,3.26
2019-02-23T05:03:26.711Z,3.24
2019-02-23T05:04:26.692Z,3.29
2019-02-23T05:05:26.676Z,3.17
2019-02-23T05:06:26.796Z,3.11
2019-02-23T05:07:26.657Z,3.10
2019-02-23T05:08:26.644Z,3.08
2019-02-23T05:09:26.663Z,3.13
2019-02-23T05:10:26.621Z,3.00
2019-02-23T05:11:26.612Z,3.11
2019-02-23T05:12:26.619Z,3.05
2019-02-23T05:13:26.592Z,3.06
2019-02-23T05:14:26.580Z,3.00
2019-02-23T05:15:26.576Z,2.96
2019-02-23T05:16:26.555Z,2.95
2019-02-23T05:17:26.547Z,3.00
2019-02-23T05:18:26.574Z,2.97
2019-02-23T05:19:26.524Z,2.96
2019-02-23T05:20:26.520Z,2.97
2019-02-23T05:21:27.069Z,2.95
2019-02-23T05:22:26.497Z,2.95
2019-02-23T05:23:26.480Z,2.87
2019-02-23T05:24:26.506Z,2.96
2019-02-23T05:25:26.462Z,2.85
2019-02-23T05:26:26.451Z,2.89
2019-02-23T05:27:26.467Z,2.87
2019-02-23T05:28:26.424Z,2.90
2019-02-23T05:29:26.437Z,2.90
2019-02-23T05:30:26.405Z,2.87
2019-02-23T05:31:26.399Z,2.87
2019-02-23T05:32:26.422Z,2.79
2019-02-23T05:33:26.381Z,2.82
2019-02-23T05:34:26.379Z,2.87
2019-02-23T05:35:26.346Z,2.79
2019-02-23T05:36:26.337Z,2.89
2019-02-23T05:37:26.354Z,2.87
2019-02-23T05:38:26.321Z,2.87
2019-02-23T05:39:26.320Z,2.90
2019-02-23T05:40:26.293Z,2.93
2019-02-23T05:41:26.290Z,2.93
2019-02-23T05:42:26.305Z,2.85
2019-02-23T05:43:26.262Z,2.93
2019-02-23T05:44:26.271Z,2.90
2019-02-23T05:45:26.243Z,2.89
2019-02-23T05:46:26.227Z,2.97
2019-02-23T05:47:26.218Z,2.97
2019-02-23T05:48:26.235Z,2.92
2019-02-23T05:49:26.201Z,2.97
2019-02-23T05:50:26.182Z,2.96
2019-02-23T05:51:38.117Z,2.99
2019-02-23T05:52:27.160Z,2.97
2019-02-23T05:53:26.174Z,3.03
2019-02-23T05:54:26.145Z,3.08
2019-02-23T05:55:26.133Z,3.02
2019-02-23T05:56:26.117Z,2.96
2019-02-23T05:57:26.125Z,3.00
2019-02-23T05:58:26.111Z,3.06
2019-02-23T05:59:26.119Z,3.13
2019-02-23T06:00:26.073Z,3.13
2019-02-23T06:01:26.063Z,3.10
2019-02-23T06:02:26.054Z,3.05
2019-02-23T06:03:26.074Z,3.08
2019-02-23T06:04:26.031Z,3.02
2019-02-23T06:05:26.017Z,2.95
2019-02-23T06:06:26.010Z,3.00
2019-02-23T06:07:26.015Z,2.95
2019-02-23T06:08:26.006Z,3.02
2019-02-23T06:09:25.983Z,2.99
2019-02-23T06:10:25.967Z,2.96
2019-02-23T06:11:25.957Z,2.93
2019-02-23T06:12:25.952Z,2.95
2019-02-23T06:13:25.954Z,2.95
2019-02-23T06:14:25.920Z,2.90
2019-02-23T06:15:25.917Z,2.87
2019-02-23T06:16:25.914Z,2.85
2019-02-23T06:17:25.893Z,2.84
2019-02-23T06:18:25.891Z,2.92
2019-02-23T06:19:25.881Z,2.93
2019-02-23T06:20:25.856Z,2.93
2019-02-23T06:21:25.850Z,2.87
2019-02-23T06:22:25.833Z,2.96
2019-02-23T06:23:25.821Z,2.87
2019-02-23T06:24:25.858Z,2.90
2019-02-23T06:25:25.807Z,2.92
2019-02-23T06:26:25.793Z,2.89
2019-02-23T06:27:25.777Z,2.90
2019-02-23T06:28:25.766Z,2.93
2019-02-23T06:29:25.781Z,2.85
2019-02-23T06:30:25.750Z,2.84
2019-02-23T06:31:25.741Z,2.89
2019-02-23T06:32:25.738Z,2.84
2019-02-23T06:33:25.729Z,2.82
2019-02-23T06:34:25.720Z,2.85
2019-02-23T06:35:25.690Z,2.92
2019-02-23T06:36:25.678Z,2.85
2019-02-23T06:37:25.668Z,2.85
2019-02-23T06:38:25.658Z,2.89
2019-02-23T06:39:25.711Z,2.84
2019-02-23T06:40:25.641Z,2.82
2019-02-23T06:41:25.627Z,2.89
2019-02-23T06:42:25.614Z,2.90
2019-02-23T06:43:25.604Z,2.85
2019-02-23T06:44:25.590Z,2.97
2019-02-23T06:45:25.604Z,2.95
2019-02-23T06:46:25.574Z,2.99
2019-02-23T06:47:25.568Z,3.02
2019-02-23T06:48:25.552Z,2.96
2019-02-23T06:49:25.539Z,2.96
2019-02-23T06:50:25.551Z,3.06
2019-02-23T06:51:25.517Z,3.06
2019-02-23T06:52:25.510Z,3.14
2019-02-23T06:53:25.522Z,3.11
2019-02-23T06:54:25.485Z,3.05
2019-02-23T06:55:25.508Z,3.18
2019-02-23T06:56:25.464Z,3.15
2019-02-23T06:57:25.449Z,3.24
2019-02-23T06:58:25.473Z,3.23
2019-02-23T06:59:25.429Z,3.33
2019-02-23T07:00:25.431Z,3.28
2019-02-23T07:01:25.405Z,3.28
2019-02-23T07:02:25.403Z,3.43
2019-02-23T07:03:25.397Z,3.43
2019-02-23T07:04:25.386Z,3.51
2019-02-23T07:05:25.460Z,3.51
2019-02-23T07:06:25.374Z,3.60
2019-02-23T07:07:25.376Z,3.52
2019-02-23T07:08:25.354Z,3.75
2019-02-23T07:09:25.376Z,3.78
2019-02-23T07:10:25.356Z,3.94
2019-02-23T07:11:25.297Z,3.97
2019-02-23T07:12:25.294Z,4.02
2019-02-23T07:13:25.301Z,4.02
2019-02-23T07:14:25.269Z,4.11
2019-02-23T07:15:25.254Z,4.32
2019-02-23T07:16:25.270Z,4.55
2019-02-23T07:17:25.270Z,4.78
2019-02-23T07:18:25.247Z,5.02
2019-02-23T07:19:25.234Z,5.15
2019-02-23T07:20:25.202Z,5.40
2019-02-23T07:21:25.213Z,5.54
2019-02-23T07:22:25.183Z,5.65
2019-02-23T07:23:25.163Z,5.75
2019-02-23T07:24:25.163Z,5.82
2019-02-23T07:25:25.143Z,5.90
2019-02-23T07:26:25.181Z,5.96
2019-02-23T07:27:25.130Z,6.03
2019-02-23T07:28:25.110Z,6.27
2019-02-23T07:29:25.123Z,6.30
2019-02-23T07:30:25.096Z,6.21
2019-02-23T07:31:25.114Z,6.19
2019-02-23T07:32:25.074Z,6.27
2019-02-23T07:33:32.738Z,6.28
2019-02-23T07:34:26.044Z,6.40
2019-02-23T07:35:25.050Z,6.43
2019-02-23T07:36:25.035Z,6.40
2019-02-23T07:37:25.044Z,6.48
2019-02-23T07:38:25.007Z,6.58
2019-02-23T07:39:24.994Z,6.55
2019-02-23T07:40:24.979Z,6.58
2019-02-23T07:41:25.028Z,6.55
2019-02-23T07:42:24.978Z,6.69
2019-02-23T07:43:24.953Z,6.77
2019-02-23T07:44:24.966Z,6.74
2019-02-23T07:45:24.927Z,6.85
2019-02-23T07:46:24.915Z,6.95
2019-02-23T07:47:24.918Z,7.03
2019-02-23T07:48:24.954Z,6.97
2019-02-23T07:49:24.884Z,7.03
2019-02-23T07:50:24.872Z,6.94
2019-02-23T07:51:24.865Z,6.80
2019-02-23T07:52:26.679Z,6.66
2019-02-23T07:53:24.839Z,6.54
2019-02-23T07:54:24.826Z,6.40
2019-02-23T07:55:24.814Z,6.21
2019-02-23T07:56:24.808Z,6.01
2019-02-23T07:57:24.822Z,5.93
2019-02-23T07:58:24.795Z,5.86
2019-02-23T07:59:24.774Z,5.75
2019-02-23T08:00:24.768Z,5.75
2019-02-23T08:01:24.760Z,5.79
2019-02-23T08:02:25.844Z,5.82
2019-02-23T08:03:24.739Z,5.89
2019-02-23T08:04:24.731Z,5.93
2019-02-23T08:05:24.717Z,5.90
2019-02-23T08:06:24.715Z,5.79
2019-02-23T08:07:24.705Z,5.81
2019-02-23T08:08:24.706Z,5.78
2019-02-23T08:09:24.668Z,5.89
2019-02-23T08:10:24.667Z,5.83
2019-02-23T08:11:24.640Z,5.83
2019-02-23T08:12:24.631Z,5.76
2019-02-23T08:13:24.653Z,5.81
2019-02-23T08:14:24.611Z,5.96
2019-02-23T08:15:24.602Z,5.94
2019-02-23T08:16:24.585Z,6.01
2019-02-23T08:17:24.574Z,6.15
2019-02-23T08:18:24.590Z,6.25
2019-02-23T08:19:24.556Z,6.41
2019-02-23T08:20:24.541Z,6.34
2019-02-23T08:21:24.546Z,6.36
2019-02-23T08:22:24.530Z,6.36
2019-02-23T08:23:24.602Z,6.34
2019-02-23T08:24:24.507Z,6.43
2019-02-23T08:25:24.496Z,6.41
2019-02-23T08:26:24.483Z,6.38
2019-02-23T08:27:24.462Z,6.33
2019-02-23T08:28:24.467Z,6.22
2019-02-23T08:29:24.452Z,6.41
2019-02-23T08:30:24.437Z,6.40
2019-02-23T08:31:24.442Z,6.34
2019-02-23T08:32:24.429Z,6.43
2019-02-23T08:33:24.426Z,6.36
2019-02-23T08:34:24.390Z,6.38
2019-02-23T08:35:24.378Z,6.52
2019-02-23T08:36:24.365Z,6.49
2019-02-23T08:37:24.357Z,6.49
2019-02-23T08:38:24.375Z,6.43
2019-02-23T08:39:24.357Z,6.43
2019-02-23T08:40:24.355Z,6.41
2019-02-23T08:41:24.330Z,6.41
2019-02-23T08:42:24.306Z,6.34
2019-02-23T08:43:24.316Z,6.33
2019-02-23T08:44:24.288Z,6.30
2019-02-23T08:45:24.291Z,6.40
2019-02-23T08:46:24.294Z,6.40
2019-02-23T08:47:24.260Z,6.38
2019-02-23T08:48:24.275Z,6.38
2019-02-23T08:49:24.240Z,6.38
2019-02-23T08:50:24.239Z,6.51
2019-02-23T08:51:24.208Z,6.56
2019-02-23T08:52:24.200Z,6.44
2019-02-23T08:53:24.239Z,6.49
2019-02-23T08:54:24.194Z,6.54
2019-02-23T08:55:24.177Z,6.69
2019-02-23T08:56:24.159Z,6.73
2019-02-23T08:57:24.144Z,6.66
2019-02-23T08:58:24.145Z,6.71
2019-02-23T08:59:24.156Z,6.67
2019-02-23T09:00:24.125Z,6.71
2019-02-23T09:01:24.096Z,6.85
2019-02-23T09:02:24.106Z,6.89
2019-02-23T09:03:24.084Z,6.95
2019-02-23T09:04:24.119Z,6.97
2019-02-23T09:05:24.065Z,7.07
2019-02-23T09:06:24.037Z,7.09
2019-02-23T09:07:24.037Z,7.06
2019-02-23T09:08:24.027Z,7.13
2019-02-23T09:09:24.012Z,7.16
2019-02-23T09:10:24.020Z,7.09
2019-02-23T09:11:23.999Z,6.99
2019-02-23T09:12:23.969Z,6.99
2019-02-23T09:13:23.984Z,7.07
2019-02-23T09:14:23.968Z,7.17
2019-02-23T09:15:23.965Z,7.30
2019-02-23T09:16:23.979Z,7.17
2019-02-23T09:17:23.948Z,7.17
2019-02-23T09:18:23.909Z,7.23
2019-02-23T09:19:23.894Z,7.10
2019-02-23T09:20:29.074Z,7.13
2019-02-23T09:21:24.875Z,7.12
2019-02-23T09:22:23.864Z,7.07
2019-02-23T09:23:23.883Z,7.07
2019-02-23T09:24:23.839Z,7.15
2019-02-23T09:25:23.849Z,7.21
2019-02-23T09:26:23.852Z,7.17
2019-02-23T09:27:23.828Z,7.37
2019-02-23T09:28:23.803Z,7.40
2019-02-23T09:29:23.782Z,7.49
2019-02-23T09:30:23.781Z,7.50
2019-02-23T09:31:23.783Z,7.61
2019-02-23T09:32:23.777Z,7.67
2019-02-23T09:33:23.741Z,7.49
2019-02-23T09:34:23.725Z,7.55
2019-02-23T09:35:23.717Z,7.49
2019-02-23T09:36:23.729Z,7.60
2019-02-23T09:37:23.698Z,7.50
2019-02-23T09:38:23.686Z,7.64
2019-02-23T09:39:23.682Z,7.74
2019-02-23T09:40:23.659Z,7.74
2019-02-23T09:41:23.685Z,7.89
2019-02-23T09:42:23.647Z,7.87
2019-02-23T09:43:23.626Z,7.83
2019-02-23T09:44:23.616Z,7.93
2019-02-23T09:45:23.607Z,7.93
2019-02-23T09:46:23.617Z,7.98
2019-02-23T09:47:23.588Z,8.10
2019-02-23T09:48:23.585Z,8.15
2019-02-23T09:49:23.565Z,8.16
2019-02-23T09:50:23.550Z,8.23
2019-02-23T09:51:23.557Z,8.29
2019-02-23T09:52:23.549Z,8.30
2019-02-23T09:53:23.538Z,8.50
2019-02-23T09:54:23.520Z,8.58
2019-02-23T09:55:23.507Z,8.66
2019-02-23T09:56:23.484Z,8.65
2019-02-23T09:57:23.500Z,8.74
2019-02-23T09:58:23.462Z,8.81
2019-02-23T09:59:23.463Z,8.80
2019-02-23T10:00:23.450Z,8.84
2019-02-23T10:01:23.442Z,8.98
2019-02-23T10:02:23.450Z,9.04
2019-02-23T10:03:23.427Z,8.95
2019-02-23T10:04:23.401Z,8.89
2019-02-23T10:05:23.389Z,8.79
2019-02-23T10:06:23.391Z,8.81
2019-02-23T10:07:23.391Z,8.91
2019-02-23T10:08:23.358Z,9.01
2019-02-23T10:09:23.356Z,9.05
2019-02-23T10:10:23.330Z,9.08
2019-02-23T10:11:23.332Z,9.14
2019-02-23T10:12:23.334Z,9.13
2019-02-23T10:13:23.299Z,9.18
2019-02-23T10:14:23.295Z,9.17
2019-02-23T10:15:23.288Z,9.33
2019-02-23T10:16:23.274Z,9.28
2019-02-23T10:17:23.256Z,9.29
2019-02-23T10:18:23.616Z,9.35
2019-02-23T10:19:23.250Z,9.31
2019-02-23T10:20:23.236Z,9.40
2019-02-23T10:21:23.217Z,9.48
2019-02-23T10:22:23.210Z,9.61
2019-02-23T10:23:23.220Z,9.65
2019-02-23T10:24:23.184Z,9.57
2019-02-23T10:25:23.187Z,9.75
2019-02-23T10:26:23.177Z,9.68
2019-02-23T10:27:23.157Z,9.71
2019-02-23T10:28:23.184Z,9.71
2019-02-23T10:29:23.131Z,9.69
2019-02-23T10:30:23.120Z,9.74
2019-02-23T10:31:23.108Z,9.83
2019-02-23T10:32:23.104Z,9.76
2019-02-23T10:33:23.092Z,9.75
2019-02-23T10:34:23.111Z,9.72
2019-02-23T10:35:23.073Z,9.84
2019-02-23T10:36:23.054Z,9.76
2019-02-23T10:37:23.040Z,9.68
2019-02-23T10:38:23.030Z,9.65
2019-02-23T10:39:23.063Z,9.66
2019-02-23T10:40:23.004Z,9.61
2019-02-23T10:41:23.008Z,9.75
2019-02-23T10:42:22.984Z,9.75
2019-02-23T10:43:22.969Z,9.74
2019-02-23T10:44:22.986Z,9.71
2019-02-23T10:45:22.957Z,9.74
2019-02-23T10:46:22.945Z,9.86
2019-02-23T10:47:22.925Z,9.86
2019-02-23T10:48:22.928Z,9.96
2019-02-23T10:49:22.921Z,10.09
2019-02-23T10:50:22.897Z,10.22
2019-02-23T10:51:22.887Z,10.27
2019-02-23T10:52:22.874Z,10.34
2019-02-23T10:53:32.414Z,10.56
2019-02-23T10:54:23.863Z,10.61
2019-02-23T10:55:22.836Z,10.66
2019-02-23T10:56:22.830Z,10.81
2019-02-23T10:57:22.822Z,10.84
2019-02-23T10:58:22.804Z,10.89
2019-02-23T10:59:22.846Z,10.94
2019-02-23T11:00:22.816Z,11.03
2019-02-23T11:01:22.822Z,11.06
2019-02-23T11:02:22.771Z,11.10
2019-02-23T11:03:22.756Z,11.03
2019-02-23T11:04:22.739Z,11.09
2019-02-23T11:05:22.769Z,11.24
2019-02-23T11:06:22.721Z,11.22
2019-02-23T11:07:22.711Z,11.27
2019-02-23T11:08:22.707Z,11.24
2019-02-23T11:09:22.703Z,11.29
2019-02-23T11:10:22.696Z,11.46
2019-02-23T11:11:22.668Z,11.33
2019-02-23T11:12:22.649Z,11.40
2019-02-23T11:13:22.638Z,11.35
2019-02-23T11:14:22.628Z,11.43
2019-02-23T11:15:22.654Z,11.36
2019-02-23T11:16:22.623Z,11.43
2019-02-23T11:17:22.598Z,11.52
2019-02-23T11:18:22.591Z,11.57
2019-02-23T11:19:22.570Z,11.65
2019-02-23T11:20:22.578Z,11.57
2019-02-23T11:21:22.563Z,11.67
2019-02-23T11:22:22.545Z,11.78
2019-02-23T11:23:22.536Z,11.78
2019-02-23T11:24:22.522Z,11.86
2019-02-23T11:25:22.543Z,11.76
2019-02-23T11:26:22.501Z,11.76
2019-02-23T11:27:22.493Z,11.80
2019-02-23T11:28:22.471Z,11.85
2019-02-23T11:29:22.463Z,11.86
2019-02-23T11:30:22.498Z,11.85
2019-02-23T11:31:22.444Z,11.73
2019-02-23T11:32:22.426Z,11.70
2019-02-23T11:33:22.431Z,11.69
2019-02-23T11:34:22.417Z,11.80
2019-02-23T11:35:22.417Z,11.85
2019-02-23T11:36:22.384Z,11.90
2019-02-23T11:37:22.466Z,12.01
2019-02-23T11:38:22.365Z,12.05
2019-02-23T11:39:22.365Z,12.14
2019-02-23T11:40:23.578Z,12.13
2019-02-23T11:41:22.352Z,12.16
2019-02-23T11:42:22.319Z,12.20
2019-02-23T11:43:22.307Z,12.21
2019-02-23T11:44:22.320Z,12.23
2019-02-23T11:45:22.284Z,12.27
2019-02-23T11:46:22.290Z,12.39
2019-02-23T11:47:22.270Z,12.27
2019-02-23T11:48:22.259Z,12.27
2019-02-23T11:49:22.254Z,12.23
2019-02-23T11:50:22.239Z,12.20
2019-02-23T11:51:22.235Z,12.14
2019-02-23T11:52:22.222Z,12.02
2019-02-23T11:53:22.201Z,11.83
2019-02-23T11:54:22.211Z,11.83
2019-02-23T11:55:22.174Z,11.83
2019-02-23T11:56:22.187Z,11.76
2019-02-23T11:57:22.160Z,11.70
2019-02-23T11:58:22.146Z,11.69
2019-02-23T11:59:22.149Z,11.65
2019-02-23T12:00:22.120Z,11.70
2019-02-23T12:01:22.135Z,11.79
2019-02-23T12:02:22.103Z,11.99
2019-02-23T12:03:22.099Z,11.90
2019-02-23T12:04:22.082Z,11.99
2019-02-23T12:05:22.087Z,12.02
2019-02-23T12:06:22.085Z,12.09
2019-02-23T12:07:22.045Z,12.14
2019-02-23T12:08:22.056Z,12.19
2019-02-23T12:09:22.029Z,12.27
2019-02-23T12:10:22.023Z,12.23
2019-02-23T12:11:22.032Z,12.21
2019-02-23T12:12:22.030Z,12.31
2019-02-23T12:13:21.997Z,12.21
2019-02-23T12:14:21.984Z,12.23
2019-02-23T12:15:21.955Z,12.28
2019-02-23T12:16:21.959Z,12.21
2019-02-23T12:17:21.958Z,12.39
2019-02-23T12:18:21.931Z,12.47
2019-02-23T12:19:21.916Z,12.52
2019-02-23T12:20:21.927Z,12.32
2019-02-23T12:21:21.900Z,12.35
2019-02-23T12:22:21.920Z,12.47
2019-02-23T12:23:21.874Z,12.56
2019-02-23T12:24:21.877Z,12.56
2019-02-23T12:25:21.855Z,12.56
2019-02-23T12:26:21.851Z,12.59
2019-02-23T12:27:21.858Z,12.56
2019-02-23T12:28:21.857Z,12.47
2019-02-23T12:29:21.806Z,12.47
2019-02-23T12:30:21.804Z,12.49
2019-02-23T12:31:21.780Z,12.60
2019-02-23T12:32:21.801Z,12.56
2019-02-23T12:33:21.765Z,12.57
2019-02-23T12:34:21.754Z,12.62
2019-02-23T12:35:21.734Z,12.62
2019-02-23T12:36:21.732Z,12.68
2019-02-23T12:37:21.739Z,12.53
2019-02-23T12:38:21.726Z,12.60
2019-02-23T12:39:21.696Z,12.56
2019-02-23T12:40:21.694Z,12.50
2019-02-23T12:41:21.673Z,12.67
2019-02-23T12:42:21.672Z,12.68
2019-02-23T12:43:21.662Z,12.74
2019-02-23T12:44:21.645Z,12.83
2019-02-23T12:45:21.643Z,12.78
2019-02-23T12:46:21.614Z,12.70
2019-02-23T12:47:21.607Z,12.70
2019-02-23T12:48:21.633Z,12.57
2019-02-23T12:49:21.594Z,12.49
2019-02-23T12:50:21.576Z,12.45
2019-02-23T12:51:21.559Z,12.23
2019-02-23T12:52:21.555Z,12.23
2019-02-23T12:53:21.558Z,12.23
2019-02-23T12:54:21.534Z,12.28
2019-02-23T12:55:21.536Z,12.31
2019-02-23T12:56:21.520Z,12.16
2019-02-23T12:57:21.497Z,12.13
2019-02-23T12:58:21.525Z,12.12
2019-02-23T12:59:21.478Z,12.12
2019-02-23T13:00:21.461Z,12.17
2019-02-23T13:01:21.453Z,12.20
2019-02-23T13:02:21.440Z,12.27
2019-02-23T13:03:21.444Z,12.42
2019-02-23T13:04:21.443Z,12.49
2019-02-23T13:05:21.405Z,12.42
2019-02-23T13:06:21.394Z,12.47
2019-02-23T13:07:21.485Z,12.50
2019-02-23T13:08:21.372Z,12.60
2019-02-23T13:09:21.381Z,12.46
2019-02-23T13:10:21.372Z,12.50
2019-02-23T13:11:21.346Z,12.38
2019-02-23T13:12:21.334Z,12.47
2019-02-23T13:13:21.323Z,12.38